sensor_id;sensor_type;location;lat;lon;timestamp;pressure;altitude;pressure_sealevel;temperature;humidity
20455;BME280;10386;54.314;10.022;2023-07-31T00:01:40;100028.66;;;14.64;100.00
20455;BME280;10386;54.314;10.022;2023-07-31T00:04:07;100014.81;;;14.65;100.00
20455;BME280;10386;54.314;10.022;2023-07-31T00:06:34;100006.50;;;14.67;100.00
20455;BME280;10386;54.314;10.022;2023-07-31T00:09:01;99993.53;;;14.69;100.00
20455;BME280;10386;54.314;10.022;2023-07-31T00:11:27;99986.50;;;14.66;100.00
20455;BME280;10386;54.314;10.022;2023-07-31T00:13:54;99992.44;;;14.62;100.00
20455;BME280;10386;54.314;10.022;2023-07-31T00:16:21;99986.28;;;14.60;100.00
20455;BME280;10386;54.314;10.022;2023-07-31T00:18:48;99985.72;;;14.74;100.00
20455;BME280;10386;54.314;10.022;2023-07-31T00:21:15;99768.69;;;14.76;100.00
20455;BME280;10386;54.314;10.022;2023-07-31T00:23:42;99766.22;;;14.65;100.00
20455;BME280;10386;54.314;10.022;2023-07-31T00:26:08;99756.16;;;14.66;100.00
20455;BME280;10386;54.314;10.022;2023-07-31T00:28:35;99747.84;;;14.75;100.00
20455;BME280;10386;54.314;10.022;2023-07-31T00:31:02;99737.47;;;14.79;100.00
20455;BME280;10386;54.314;10.022;2023-07-31T00:33:31;99747.19;;;14.81;100.00
20455;BME280;10386;54.314;10.022;2023-07-31T00:35:58;99753.63;;;14.72;100.00
20455;BME280;10386;54.314;10.022;2023-07-31T00:38:24;99748.81;;;14.66;100.00
20455;BME280;10386;54.314;10.022;2023-07-31T00:40:51;99750.84;;;14.64;100.00
20455;BME280;10386;54.314;10.022;2023-07-31T00:43:18;99733.72;;;14.54;100.00
20455;BME280;10386;54.314;10.022;2023-07-31T00:45:45;99707.00;;;14.66;100.00
20455;BME280;10386;54.314;10.022;2023-07-31T00:48:12;99707.66;;;14.60;100.00
20455;BME280;10386;54.314;10.022;2023-07-31T00:50:39;99710.00;;;14.55;100.00
20455;BME280;10386;54.314;10.022;2023-07-31T00:53:06;99709.97;;;14.47;100.00
20455;BME280;10386;54.314;10.022;2023-07-31T00:55:33;99702.13;;;14.52;100.00
20455;BME280;10386;54.314;10.022;2023-07-31T00:58:00;99701.69;;;14.39;100.00
20455;BME280;10386;54.314;10.022;2023-07-31T01:00:27;99698.31;;;14.45;100.00
20455;BME280;10386;54.314;10.022;2023-07-31T01:02:53;99682.94;;;14.44;100.00
20455;BME280;10386;54.314;10.022;2023-07-31T01:05:39;99690.63;;;14.40;100.00
20455;BME280;10386;54.314;10.022;2023-07-31T01:11:29;99682.19;;;14.34;100.00
20455;BME280;10386;54.314;10.022;2023-07-31T01:13:57;99677.94;;;14.31;100.00
20455;BME280;10386;54.314;10.022;2023-07-31T01:16:25;99673.97;;;14.26;100.00
20455;BME280;10386;54.314;10.022;2023-07-31T01:18:52;99850.00;;;14.57;100.00
20455;BME280;10386;54.314;10.022;2023-07-31T01:21:25;99840.03;;;14.48;100.00
20455;BME280;10386;54.314;10.022;2023-07-31T01:24:08;99839.16;;;14.47;100.00
20455;BME280;10386;54.314;10.022;2023-07-31T01:26:44;99842.06;;;14.28;100.00
20455;BME280;10386;54.314;10.022;2023-07-31T01:29:26;99849.75;;;14.33;100.00
20455;BME280;10386;54.314;10.022;2023-07-31T01:32:01;99851.28;;;14.27;100.00
20455;BME280;10386;54.314;10.022;2023-07-31T01:34:29;99836.81;;;14.35;100.00
20455;BME280;10386;54.314;10.022;2023-07-31T01:36:56;99843.06;;;14.27;100.00
20455;BME280;10386;54.314;10.022;2023-07-31T01:39:24;99829.44;;;14.27;100.00
20455;BME280;10386;54.314;10.022;2023-07-31T01:41:51;99832.22;;;14.35;100.00
20455;BME280;10386;54.314;10.022;2023-07-31T01:44:18;99828.97;;;14.14;100.00
20455;BME280;10386;54.314;10.022;2023-07-31T01:46:45;99830.09;;;14.12;100.00
20455;BME280;10386;54.314;10.022;2023-07-31T01:49:12;99823.19;;;14.17;100.00
20455;BME280;10386;54.314;10.022;2023-07-31T01:51:39;99826.97;;;14.07;100.00
20455;BME280;10386;54.314;10.022;2023-07-31T01:54:06;99831.34;;;14.00;100.00
20455;BME280;10386;54.314;10.022;2023-07-31T01:56:33;99827.28;;;14.04;100.00
20455;BME280;10386;54.314;10.022;2023-07-31T01:58:59;99816.84;;;14.17;100.00
20455;BME280;10386;54.314;10.022;2023-07-31T02:01:26;99814.50;;;14.04;100.00
20455;BME280;10386;54.314;10.022;2023-07-31T02:03:53;99812.31;;;14.08;100.00
20455;BME280;10386;54.314;10.022;2023-07-31T02:06:21;99808.84;;;14.15;100.00
20455;BME280;10386;54.314;10.022;2023-07-31T02:08:50;99801.75;;;14.22;100.00
20455;BME280;10386;54.314;10.022;2023-07-31T02:11:17;99805.53;;;14.12;100.00
20455;BME280;10386;54.314;10.022;2023-07-31T02:13:43;99802.91;;;14.20;100.00
20455;BME280;10386;54.314;10.022;2023-07-31T02:16:10;99797.19;;;14.31;100.00
20455;BME280;10386;54.314;10.022;2023-07-31T02:18:37;99804.59;;;14.03;100.00
20455;BME280;10386;54.314;10.022;2023-07-31T02:21:04;99802.50;;;14.15;100.00
20455;BME280;10386;54.314;10.022;2023-07-31T02:23:30;99790.56;;;14.16;100.00
20455;BME280;10386;54.314;10.022;2023-07-31T02:25:57;99783.66;;;14.21;100.00
20455;BME280;10386;54.314;10.022;2023-07-31T02:28:24;99778.31;;;14.20;100.00
20455;BME280;10386;54.314;10.022;2023-07-31T02:30:51;99779.50;;;14.17;100.00
20455;BME280;10386;54.314;10.022;2023-07-31T02:33:18;99773.97;;;14.09;100.00
20455;BME280;10386;54.314;10.022;2023-07-31T02:35:45;99767.91;;;14.15;100.00
20455;BME280;10386;54.314;10.022;2023-07-31T02:38:12;99766.88;;;14.16;100.00
20455;BME280;10386;54.314;10.022;2023-07-31T02:40:40;99770.91;;;14.12;100.00
20455;BME280;10386;54.314;10.022;2023-07-31T02:43:09;99780.97;;;14.12;100.00
20455;BME280;10386;54.314;10.022;2023-07-31T02:45:36;99777.09;;;14.14;100.00
20455;BME280;10386;54.314;10.022;2023-07-31T02:48:03;99770.69;;;14.23;100.00
20455;BME280;10386;54.314;10.022;2023-07-31T02:50:30;99774.81;;;14.27;100.00
20455;BME280;10386;54.314;10.022;2023-07-31T02:52:58;99765.09;;;14.50;100.00
20455;BME280;10386;54.314;10.022;2023-07-31T02:55:25;99764.50;;;14.39;100.00
20455;BME280;10386;54.314;10.022;2023-07-31T02:57:52;99761.44;;;14.42;100.00
20455;BME280;10386;54.314;10.022;2023-07-31T03:00:19;99757.69;;;14.43;100.00
20455;BME280;10386;54.314;10.022;2023-07-31T03:02:45;99759.13;;;14.47;100.00
20455;BME280;10386;54.314;10.022;2023-07-31T03:05:12;99760.13;;;14.46;100.00
20455;BME280;10386;54.314;10.022;2023-07-31T03:07:39;99762.78;;;14.38;100.00
20455;BME280;10386;54.314;10.022;2023-07-31T03:10:06;99752.41;;;14.41;100.00
20455;BME280;10386;54.314;10.022;2023-07-31T03:12:34;99753.19;;;14.34;100.00
20455;BME280;10386;54.314;10.022;2023-07-31T03:15:02;99749.06;;;14.30;100.00
20455;BME280;10386;54.314;10.022;2023-07-31T03:17:29;99741.94;;;14.37;100.00
20455;BME280;10386;54.314;10.022;2023-07-31T03:19:56;99740.25;;;14.61;100.00
20455;BME280;10386;54.314;10.022;2023-07-31T03:22:23;99739.69;;;14.50;100.00
20455;BME280;10386;54.314;10.022;2023-07-31T03:24:49;99731.00;;;14.54;100.00
20455;BME280;10386;54.314;10.022;2023-07-31T03:27:16;99720.94;;;14.55;100.00
20455;BME280;10386;54.314;10.022;2023-07-31T03:29:43;99707.47;;;14.61;100.00
20455;BME280;10386;54.314;10.022;2023-07-31T03:32:09;99705.63;;;14.62;100.00
20455;BME280;10386;54.314;10.022;2023-07-31T03:34:36;99583.22;;;14.73;100.00
20455;BME280;10386;54.314;10.022;2023-07-31T03:37:04;99584.94;;;14.74;100.00
20455;BME280;10386;54.314;10.022;2023-07-31T03:39:31;99576.38;;;14.69;100.00
20455;BME280;10386;54.314;10.022;2023-07-31T03:41:58;99564.88;;;14.91;100.00
20455;BME280;10386;54.314;10.022;2023-07-31T03:44:25;99497.38;;;14.84;100.00
20455;BME280;10386;54.314;10.022;2023-07-31T03:46:51;99484.75;;;14.91;100.00
20455;BME280;10386;54.314;10.022;2023-07-31T03:49:18;99482.16;;;14.81;100.00
20455;BME280;10386;54.314;10.022;2023-07-31T03:51:45;99481.47;;;14.87;100.00
20455;BME280;10386;54.314;10.022;2023-07-31T03:54:12;99478.09;;;14.93;100.00
20455;BME280;10386;54.314;10.022;2023-07-31T03:56:40;99470.75;;;15.02;100.00
20455;BME280;10386;54.314;10.022;2023-07-31T03:59:07;99459.31;;;15.06;100.00
20455;BME280;10386;54.314;10.022;2023-07-31T04:01:34;99457.59;;;15.05;100.00
20455;BME280;10386;54.314;10.022;2023-07-31T04:04:01;99458.28;;;15.15;100.00
20455;BME280;10386;54.314;10.022;2023-07-31T04:06:28;99535.53;;;15.17;100.00
20455;BME280;10386;54.314;10.022;2023-07-31T04:08:54;99525.13;;;15.28;100.00
20455;BME280;10386;54.314;10.022;2023-07-31T04:11:21;99529.53;;;15.21;100.00
20455;BME280;10386;54.314;10.022;2023-07-31T04:13:48;99519.97;;;15.25;100.00
20455;BME280;10386;54.314;10.022;2023-07-31T04:16:15;99515.00;;;15.21;100.00
20455;BME280;10386;54.314;10.022;2023-07-31T04:18:42;99516.72;;;15.14;100.00
20455;BME280;10386;54.314;10.022;2023-07-31T04:21:09;99488.16;;;15.17;100.00
20455;BME280;10386;54.314;10.022;2023-07-31T04:23:36;99476.91;;;15.12;100.00
20455;BME280;10386;54.314;10.022;2023-07-31T04:26:03;99471.78;;;15.17;100.00
20455;BME280;10386;54.314;10.022;2023-07-31T04:28:30;99465.97;;;15.19;100.00
20455;BME280;10386;54.314;10.022;2023-07-31T04:30:58;99459.81;;;15.25;100.00
20455;BME280;10386;54.314;10.022;2023-07-31T04:33:25;99458.09;;;15.09;100.00
20455;BME280;10386;54.314;10.022;2023-07-31T04:35:53;99453.31;;;15.11;100.00
20455;BME280;10386;54.314;10.022;2023-07-31T04:38:21;99455.72;;;15.06;100.00
20455;BME280;10386;54.314;10.022;2023-07-31T04:40:48;99452.13;;;15.05;100.00
20455;BME280;10386;54.314;10.022;2023-07-31T04:43:15;99437.59;;;15.05;100.00
20455;BME280;10386;54.314;10.022;2023-07-31T04:45:45;99436.91;;;15.03;100.00
20455;BME280;10386;54.314;10.022;2023-07-31T04:48:13;99423.94;;;15.05;100.00
20455;BME280;10386;54.314;10.022;2023-07-31T04:50:40;99422.41;;;15.10;100.00
20455;BME280;10386;54.314;10.022;2023-07-31T04:53:07;99423.94;;;15.13;100.00
20455;BME280;10386;54.314;10.022;2023-07-31T04:55:34;99417.78;;;15.11;100.00
20455;BME280;10386;54.314;10.022;2023-07-31T04:58:01;99414.72;;;15.14;100.00
20455;BME280;10386;54.314;10.022;2023-07-31T05:00:28;99411.63;;;15.09;100.00
20455;BME280;10386;54.314;10.022;2023-07-31T05:02:55;99393.50;;;15.16;100.00
20455;BME280;10386;54.314;10.022;2023-07-31T05:05:22;99386.19;;;15.32;100.00
20455;BME280;10386;54.314;10.022;2023-07-31T05:07:49;99382.94;;;15.28;100.00
20455;BME280;10386;54.314;10.022;2023-07-31T05:10:15;99385.31;;;15.23;100.00
20455;BME280;10386;54.314;10.022;2023-07-31T05:12:42;99357.50;;;15.28;100.00
20455;BME280;10386;54.314;10.022;2023-07-31T05:15:09;99351.13;;;15.43;100.00
20455;BME280;10386;54.314;10.022;2023-07-31T05:17:36;99352.66;;;15.46;100.00
20455;BME280;10386;54.314;10.022;2023-07-31T05:20:03;99335.72;;;15.50;100.00
20455;BME280;10386;54.314;10.022;2023-07-31T05:22:30;99336.06;;;15.47;100.00
20455;BME280;10386;54.314;10.022;2023-07-31T05:24:57;99335.38;;;15.53;100.00
20455;BME280;10386;54.314;10.022;2023-07-31T05:27:23;99315.88;;;15.56;100.00
20455;BME280;10386;54.314;10.022;2023-07-31T05:29:50;99299.25;;;15.58;100.00
20455;BME280;10386;54.314;10.022;2023-07-31T05:32:17;99288.44;;;15.72;100.00
20455;BME280;10386;54.314;10.022;2023-07-31T05:34:44;99287.44;;;15.65;100.00
20455;BME280;10386;54.314;10.022;2023-07-31T05:37:10;99287.78;;;15.62;100.00
20455;BME280;10386;54.314;10.022;2023-07-31T05:39:38;99288.59;;;15.71;100.00
20455;BME280;10386;54.314;10.022;2023-07-31T05:42:05;99295.41;;;15.83;100.00
20455;BME280;10386;54.314;10.022;2023-07-31T05:44:31;99284.59;;;15.81;100.00
20455;BME280;10386;54.314;10.022;2023-07-31T05:46:58;99279.13;;;15.81;100.00
20455;BME280;10386;54.314;10.022;2023-07-31T05:49:25;99274.13;;;15.93;100.00
20455;BME280;10386;54.314;10.022;2023-07-31T05:51:52;99281.91;;;15.73;100.00
20455;BME280;10386;54.314;10.022;2023-07-31T05:54:19;99268.91;;;15.75;100.00
20455;BME280;10386;54.314;10.022;2023-07-31T05:56:45;99263.69;;;15.88;100.00
20455;BME280;10386;54.314;10.022;2023-07-31T05:59:12;99255.06;;;15.99;100.00
20455;BME280;10386;54.314;10.022;2023-07-31T06:01:40;99260.25;;;15.94;100.00
20455;BME280;10386;54.314;10.022;2023-07-31T06:04:06;99246.94;;;16.14;100.00
20455;BME280;10386;54.314;10.022;2023-07-31T06:06:34;99250.22;;;15.87;100.00
20455;BME280;10386;54.314;10.022;2023-07-31T06:09:00;99251.44;;;16.07;100.00
20455;BME280;10386;54.314;10.022;2023-07-31T06:11:27;99250.16;;;15.95;100.00
20455;BME280;10386;54.314;10.022;2023-07-31T06:13:54;99247.09;;;16.12;100.00
20455;BME280;10386;54.314;10.022;2023-07-31T06:16:22;99249.53;;;16.07;100.00
20455;BME280;10386;54.314;10.022;2023-07-31T06:18:49;99249.75;;;16.06;100.00
20455;BME280;10386;54.314;10.022;2023-07-31T06:21:16;99243.91;;;16.09;100.00
20455;BME280;10386;54.314;10.022;2023-07-31T06:23:43;99239.94;;;16.11;100.00
20455;BME280;10386;54.314;10.022;2023-07-31T06:26:10;99244.50;;;16.19;100.00
20455;BME280;10386;54.314;10.022;2023-07-31T06:28:37;99235.00;;;16.29;100.00
20455;BME280;10386;54.314;10.022;2023-07-31T06:31:04;99239.31;;;16.24;100.00
20455;BME280;10386;54.314;10.022;2023-07-31T06:33:31;99246.13;;;16.05;100.00
20455;BME280;10386;54.314;10.022;2023-07-31T06:35:58;99253.31;;;16.06;100.00
20455;BME280;10386;54.314;10.022;2023-07-31T06:38:25;99254.94;;;16.15;100.00
20455;BME280;10386;54.314;10.022;2023-07-31T06:40:53;99250.88;;;16.11;100.00
20455;BME280;10386;54.314;10.022;2023-07-31T06:43:20;99245.97;;;16.07;100.00
20455;BME280;10386;54.314;10.022;2023-07-31T06:45:46;99247.47;;;16.09;100.00
20455;BME280;10386;54.314;10.022;2023-07-31T06:48:17;99248.56;;;16.00;100.00
20455;BME280;10386;54.314;10.022;2023-07-31T06:50:43;99262.09;;;16.02;100.00
20455;BME280;10386;54.314;10.022;2023-07-31T06:53:10;99261.53;;;16.06;100.00
20455;BME280;10386;54.314;10.022;2023-07-31T06:55:37;99251.25;;;16.08;100.00
20455;BME280;10386;54.314;10.022;2023-07-31T06:58:04;99256.03;;;16.06;100.00
20455;BME280;10386;54.314;10.022;2023-07-31T07:00:30;99254.25;;;16.21;100.00
20455;BME280;10386;54.314;10.022;2023-07-31T07:02:58;99260.94;;;16.19;100.00
20455;BME280;10386;54.314;10.022;2023-07-31T07:05:25;99245.00;;;16.22;100.00
20455;BME280;10386;54.314;10.022;2023-07-31T07:07:52;99251.44;;;16.29;100.00
20455;BME280;10386;54.314;10.022;2023-07-31T07:10:19;99239.63;;;16.29;100.00
20455;BME280;10386;54.314;10.022;2023-07-31T07:12:46;99239.88;;;16.42;100.00
20455;BME280;10386;54.314;10.022;2023-07-31T07:15:13;99243.13;;;16.45;100.00
20455;BME280;10386;54.314;10.022;2023-07-31T07:17:39;99244.91;;;16.38;100.00
20455;BME280;10386;54.314;10.022;2023-07-31T07:20:07;99249.13;;;16.41;100.00
20455;BME280;10386;54.314;10.022;2023-07-31T07:22:34;99237.94;;;16.50;100.00
20455;BME280;10386;54.314;10.022;2023-07-31T07:25:04;99242.00;;;16.54;100.00
20455;BME280;10386;54.314;10.022;2023-07-31T07:27:31;99240.44;;;16.74;100.00
20455;BME280;10386;54.314;10.022;2023-07-31T07:29:58;99245.97;;;16.52;100.00
20455;BME280;10386;54.314;10.022;2023-07-31T07:32:25;99243.50;;;16.57;100.00
20455;BME280;10386;54.314;10.022;2023-07-31T07:34:52;99241.56;;;16.65;100.00
20455;BME280;10386;54.314;10.022;2023-07-31T07:37:19;99239.97;;;16.70;100.00
20455;BME280;10386;54.314;10.022;2023-07-31T07:39:45;99254.31;;;16.58;100.00
20455;BME280;10386;54.314;10.022;2023-07-31T07:42:12;99246.00;;;16.66;100.00
20455;BME280;10386;54.314;10.022;2023-07-31T07:44:39;99250.28;;;16.68;100.00
20455;BME280;10386;54.314;10.022;2023-07-31T07:47:06;99257.63;;;16.68;100.00
20455;BME280;10386;54.314;10.022;2023-07-31T07:49:34;99253.75;;;16.63;100.00
20455;BME280;10386;54.314;10.022;2023-07-31T07:52:02;99262.66;;;16.65;100.00
20455;BME280;10386;54.314;10.022;2023-07-31T07:54:29;99257.78;;;16.52;100.00
20455;BME280;10386;54.314;10.022;2023-07-31T07:56:56;99260.75;;;16.65;100.00
20455;BME280;10386;54.314;10.022;2023-07-31T07:59:23;99269.25;;;16.70;100.00
20455;BME280;10386;54.314;10.022;2023-07-31T08:01:50;99267.00;;;16.73;100.00
20455;BME280;10386;54.314;10.022;2023-07-31T08:04:16;99269.91;;;16.72;100.00
20455;BME280;10386;54.314;10.022;2023-07-31T08:06:43;99267.88;;;16.88;100.00
20455;BME280;10386;54.314;10.022;2023-07-31T08:09:10;99273.06;;;16.98;100.00
20455;BME280;10386;54.314;10.022;2023-07-31T08:11:37;99282.63;;;16.87;100.00
20455;BME280;10386;54.314;10.022;2023-07-31T08:14:03;99277.91;;;16.96;100.00
20455;BME280;10386;54.314;10.022;2023-07-31T08:16:30;99280.09;;;17.00;100.00
20455;BME280;10386;54.314;10.022;2023-07-31T08:18:57;99307.00;;;16.82;100.00
20455;BME280;10386;54.314;10.022;2023-07-31T08:21:24;99312.78;;;16.87;100.00
20455;BME280;10386;54.314;10.022;2023-07-31T08:23:51;99312.66;;;16.81;100.00
20455;BME280;10386;54.314;10.022;2023-07-31T08:26:19;99313.03;;;16.78;100.00
20455;BME280;10386;54.314;10.022;2023-07-31T08:28:45;99320.34;;;16.85;100.00
20455;BME280;10386;54.314;10.022;2023-07-31T08:31:12;99330.22;;;16.72;100.00
20455;BME280;10386;54.314;10.022;2023-07-31T08:33:39;99333.38;;;16.83;100.00
20455;BME280;10386;54.314;10.022;2023-07-31T08:36:07;99335.44;;;16.81;100.00
20455;BME280;10386;54.314;10.022;2023-07-31T08:38:34;99332.44;;;16.91;100.00
20455;BME280;10386;54.314;10.022;2023-07-31T08:41:03;99340.13;;;16.95;100.00
20455;BME280;10386;54.314;10.022;2023-07-31T08:43:31;99343.75;;;17.10;100.00
20455;BME280;10386;54.314;10.022;2023-07-31T08:45:59;99360.50;;;17.15;100.00
20455;BME280;10386;54.314;10.022;2023-07-31T08:48:28;99372.69;;;17.13;100.00
20455;BME280;10386;54.314;10.022;2023-07-31T08:50:55;99386.69;;;17.18;100.00
20455;BME280;10386;54.314;10.022;2023-07-31T08:53:22;99397.19;;;17.14;100.00
20455;BME280;10386;54.314;10.022;2023-07-31T08:55:49;99404.66;;;17.06;100.00
20455;BME280;10386;54.314;10.022;2023-07-31T08:58:17;99413.91;;;17.05;100.00
20455;BME280;10386;54.314;10.022;2023-07-31T09:00:45;99430.22;;;16.98;100.00
20455;BME280;10386;54.314;10.022;2023-07-31T09:03:14;99442.72;;;17.01;100.00
20455;BME280;10386;54.314;10.022;2023-07-31T09:05:43;99454.84;;;17.06;100.00
20455;BME280;10386;54.314;10.022;2023-07-31T09:08:12;99467.44;;;16.93;100.00
20455;BME280;10386;54.314;10.022;2023-07-31T09:10:44;99475.19;;;16.89;100.00
20455;BME280;10386;54.314;10.022;2023-07-31T09:13:14;99484.31;;;16.82;100.00
20455;BME280;10386;54.314;10.022;2023-07-31T09:15:44;99334.59;;;16.81;100.00
20455;BME280;10386;54.314;10.022;2023-07-31T09:18:11;99339.69;;;16.84;100.00
20455;BME280;10386;54.314;10.022;2023-07-31T09:20:38;99335.38;;;16.89;100.00
20455;BME280;10386;54.314;10.022;2023-07-31T09:23:14;99346.50;;;16.73;100.00
20455;BME280;10386;54.314;10.022;2023-07-31T09:25:46;99343.47;;;16.83;100.00
20455;BME280;10386;54.314;10.022;2023-07-31T09:28:13;99354.50;;;16.75;100.00
20455;BME280;10386;54.314;10.022;2023-07-31T09:30:45;99346.97;;;16.77;100.00
20455;BME280;10386;54.314;10.022;2023-07-31T09:33:13;99341.19;;;16.72;100.00
20455;BME280;10386;54.314;10.022;2023-07-31T09:35:41;99341.97;;;16.80;100.00
20455;BME280;10386;54.314;10.022;2023-07-31T09:38:12;99334.50;;;16.89;100.00
20455;BME280;10386;54.314;10.022;2023-07-31T09:40:41;99337.63;;;16.86;100.00
20455;BME280;10386;54.314;10.022;2023-07-31T09:43:11;99335.81;;;16.78;100.00
20455;BME280;10386;54.314;10.022;2023-07-31T09:45:40;99330.72;;;16.90;100.00
20455;BME280;10386;54.314;10.022;2023-07-31T09:48:16;99326.84;;;16.84;100.00
20455;BME280;10386;54.314;10.022;2023-07-31T09:50:48;99327.97;;;16.75;100.00
20455;BME280;10386;54.314;10.022;2023-07-31T09:53:16;99321.91;;;16.80;100.00
20455;BME280;10386;54.314;10.022;2023-07-31T09:55:43;99331.00;;;16.80;100.00
20455;BME280;10386;54.314;10.022;2023-07-31T09:58:11;99329.59;;;16.84;100.00
20455;BME280;10386;54.314;10.022;2023-07-31T10:00:39;99328.44;;;16.79;100.00
20455;BME280;10386;54.314;10.022;2023-07-31T10:03:08;99329.09;;;16.81;100.00
20455;BME280;10386;54.314;10.022;2023-07-31T10:05:42;99334.63;;;16.95;100.00
20455;BME280;10386;54.314;10.022;2023-07-31T10:08:14;99320.19;;;17.01;100.00
20455;BME280;10386;54.314;10.022;2023-07-31T10:10:43;99301.47;;;17.19;100.00
20455;BME280;10386;54.314;10.022;2023-07-31T10:13:10;99301.19;;;17.14;100.00
20455;BME280;10386;54.314;10.022;2023-07-31T10:15:38;99304.50;;;17.24;100.00
20455;BME280;10386;54.314;10.022;2023-07-31T10:18:08;99308.88;;;17.19;100.00
20455;BME280;10386;54.314;10.022;2023-07-31T10:20:35;99316.72;;;17.22;100.00
20455;BME280;10386;54.314;10.022;2023-07-31T10:23:03;99315.31;;;17.26;100.00
20455;BME280;10386;54.314;10.022;2023-07-31T10:25:30;99312.94;;;17.23;100.00
20455;BME280;10386;54.314;10.022;2023-07-31T10:27:58;99316.81;;;17.28;100.00
20455;BME280;10386;54.314;10.022;2023-07-31T10:30:28;99324.00;;;17.29;100.00
20455;BME280;10386;54.314;10.022;2023-07-31T10:32:57;99311.84;;;17.46;100.00
20455;BME280;10386;54.314;10.022;2023-07-31T10:35:27;99319.50;;;17.36;100.00
20455;BME280;10386;54.314;10.022;2023-07-31T10:37:54;99315.47;;;17.24;100.00
20455;BME280;10386;54.314;10.022;2023-07-31T10:40:25;99305.09;;;17.20;100.00
20455;BME280;10386;54.314;10.022;2023-07-31T10:45:31;99308.13;;;17.25;100.00
20455;BME280;10386;54.314;10.022;2023-07-31T10:48:03;99296.88;;;17.49;100.00
20455;BME280;10386;54.314;10.022;2023-07-31T10:50:55;99294.84;;;17.28;100.00
20455;BME280;10386;54.314;10.022;2023-07-31T10:53:32;99295.94;;;17.42;100.00
20455;BME280;10386;54.314;10.022;2023-07-31T10:56:07;99303.31;;;17.41;100.00
20455;BME280;10386;54.314;10.022;2023-07-31T10:58:36;99290.34;;;17.64;100.00
20455;BME280;10386;54.314;10.022;2023-07-31T11:01:04;99278.69;;;17.77;100.00
20455;BME280;10386;54.314;10.022;2023-07-31T11:03:46;99283.03;;;17.86;100.00
20455;BME280;10386;54.314;10.022;2023-07-31T11:06:14;99273.22;;;17.62;100.00
20455;BME280;10386;54.314;10.022;2023-07-31T11:08:46;99263.53;;;17.81;100.00
20455;BME280;10386;54.314;10.022;2023-07-31T11:11:15;99260.31;;;17.92;100.00
20455;BME280;10386;54.314;10.022;2023-07-31T11:13:45;99265.59;;;17.79;100.00
20455;BME280;10386;54.314;10.022;2023-07-31T11:16:13;99278.28;;;17.80;100.00
20455;BME280;10386;54.314;10.022;2023-07-31T11:18:42;99284.44;;;17.82;100.00
20455;BME280;10386;54.314;10.022;2023-07-31T11:21:19;99289.94;;;17.82;100.00
20455;BME280;10386;54.314;10.022;2023-07-31T11:23:47;99301.22;;;17.87;100.00
20455;BME280;10386;54.314;10.022;2023-07-31T11:26:15;99311.63;;;17.77;100.00
20455;BME280;10386;54.314;10.022;2023-07-31T11:28:43;99325.72;;;17.74;100.00
20455;BME280;10386;54.314;10.022;2023-07-31T11:31:10;99328.13;;;17.62;100.00
20455;BME280;10386;54.314;10.022;2023-07-31T11:33:37;99320.06;;;17.61;100.00
20455;BME280;10386;54.314;10.022;2023-07-31T11:36:04;99296.13;;;17.69;100.00
20455;BME280;10386;54.314;10.022;2023-07-31T11:38:33;99296.28;;;17.82;100.00
20455;BME280;10386;54.314;10.022;2023-07-31T11:41:04;99288.53;;;17.86;100.00
20455;BME280;10386;54.314;10.022;2023-07-31T11:43:31;99293.97;;;18.00;100.00
20455;BME280;10386;54.314;10.022;2023-07-31T11:46:00;99302.56;;;18.11;100.00
20455;BME280;10386;54.314;10.022;2023-07-31T11:48:34;99327.47;;;18.10;100.00
20455;BME280;10386;54.314;10.022;2023-07-31T11:51:04;99348.63;;;17.81;100.00
20455;BME280;10386;54.314;10.022;2023-07-31T11:53:36;99355.47;;;17.70;100.00
20455;BME280;10386;54.314;10.022;2023-07-31T11:56:05;99351.66;;;17.57;100.00
20455;BME280;10386;54.314;10.022;2023-07-31T11:58:35;99348.56;;;17.60;100.00
20455;BME280;10386;54.314;10.022;2023-07-31T12:01:02;99341.81;;;17.77;100.00
20455;BME280;10386;54.314;10.022;2023-07-31T12:03:31;99347.03;;;17.72;100.00
20455;BME280;10386;54.314;10.022;2023-07-31T12:05:58;99366.91;;;17.45;100.00
20455;BME280;10386;54.314;10.022;2023-07-31T12:08:25;99382.44;;;17.15;100.00
20455;BME280;10386;54.314;10.022;2023-07-31T12:10:53;99382.06;;;16.96;100.00
20455;BME280;10386;54.314;10.022;2023-07-31T12:13:23;99379.28;;;17.04;100.00
20455;BME280;10386;54.314;10.022;2023-07-31T12:15:54;99373.63;;;17.05;100.00
20455;BME280;10386;54.314;10.022;2023-07-31T12:18:24;99371.22;;;17.25;100.00
20455;BME280;10386;54.314;10.022;2023-07-31T12:20:57;99374.25;;;17.30;100.00
20455;BME280;10386;54.314;10.022;2023-07-31T12:23:29;99361.34;;;17.30;100.00
20455;BME280;10386;54.314;10.022;2023-07-31T12:26:11;99357.50;;;17.25;100.00
20455;BME280;10386;54.314;10.022;2023-07-31T12:28:45;99357.66;;;17.23;100.00
20455;BME280;10386;54.314;10.022;2023-07-31T12:33:41;99362.69;;;17.20;100.00
20455;BME280;10386;54.314;10.022;2023-07-31T12:36:11;99350.81;;;17.42;100.00
20455;BME280;10386;54.314;10.022;2023-07-31T12:38:38;99360.84;;;17.35;100.00
20455;BME280;10386;54.314;10.022;2023-07-31T12:41:05;99371.09;;;17.18;100.00
20455;BME280;10386;54.314;10.022;2023-07-31T12:43:36;99376.94;;;17.15;100.00
20455;BME280;10386;54.314;10.022;2023-07-31T12:46:03;99368.22;;;17.34;100.00
20455;BME280;10386;54.314;10.022;2023-07-31T12:48:31;99370.41;;;17.16;100.00
20455;BME280;10386;54.314;10.022;2023-07-31T12:50:58;99363.91;;;17.17;100.00
20455;BME280;10386;54.314;10.022;2023-07-31T12:53:25;99370.78;;;17.13;100.00